createdAt,value
2023-03-16T00:03:21.217Z,2.55
2023-03-16T00:07:22.795Z,2.52
2023-03-16T00:11:21.433Z,2.52
2023-03-16T00:15:20.980Z,2.52
2023-03-16T00:19:21.059Z,2.52
2023-03-16T00:23:20.393Z,2.52
2023-03-16T00:27:21.017Z,2.52
2023-03-16T00:31:21.454Z,2.54
2023-03-16T00:35:21.086Z,2.54
2023-03-16T00:39:20.434Z,2.54
2023-03-16T00:43:20.048Z,2.54
2023-03-16T00:47:20.785Z,2.54
2023-03-16T00:51:20.569Z,2.54
2023-03-16T00:55:20.602Z,2.55
2023-03-16T00:59:20.646Z,2.54
2023-03-16T01:03:21.025Z,2.54
2023-03-16T01:07:20.449Z,2.55
2023-03-16T01:11:20.120Z,2.56
2023-03-16T01:15:20.267Z,2.56
2023-03-16T01:19:20.323Z,2.56
2023-03-16T01:23:20.423Z,2.56
2023-03-16T01:27:20.604Z,2.56
2023-03-16T01:31:21.278Z,2.56
2023-03-16T01:35:21.165Z,2.58
2023-03-16T01:39:20.166Z,2.58
2023-03-16T01:43:20.573Z,2.58
2023-03-16T01:47:20.730Z,2.59
2023-03-16T01:51:20.694Z,2.59
2023-03-16T01:55:21.047Z,2.59
2023-03-16T01:59:20.986Z,2.6
2023-03-16T02:03:21.263Z,2.6
2023-03-16T02:07:21.348Z,2.65
2023-03-16T02:11:21.128Z,2.71
2023-03-16T02:15:20.203Z,2.71
2023-03-16T02:19:20.568Z,3.08
2023-03-16T02:23:20.575Z,3.08
2023-03-16T02:27:20.933Z,3.08
2023-03-16T02:31:21.288Z,3.08
2023-03-16T02:35:20.181Z,3.08
2023-03-16T02:39:20.647Z,3.08
2023-03-16T02:43:20.524Z,3.08
2023-03-16T02:47:21.349Z,3.08
2023-03-16T02:51:20.914Z,3.08
2023-03-16T02:55:21.249Z,3.08
2023-03-16T02:59:20.072Z,3.08
2023-03-16T03:03:21.615Z,3.08
2023-03-16T03:07:20.430Z,3.08
2023-03-16T03:11:20.640Z,3.08
2023-03-16T03:15:20.740Z,3.08
2023-03-16T03:19:20.911Z,3.08
2023-03-16T03:23:21.076Z,0.76
2023-03-16T03:27:21.086Z,0.71
2023-03-16T03:31:21.378Z,1.03
2023-03-16T03:35:20.197Z,1.27
2023-03-16T03:39:20.457Z,1.3
2023-03-16T03:43:20.658Z,1.3
2023-03-16T03:47:22.149Z,1.3
2023-03-16T03:51:20.921Z,1.3
2023-03-16T03:55:20.796Z,1.3
2023-03-16T03:59:21.266Z,1.3
2023-03-16T04:03:22.622Z,1.3
2023-03-16T04:07:20.506Z,1.3
2023-03-16T04:11:20.514Z,1.3
2023-03-16T04:15:20.637Z,1.3
2023-03-16T04:19:23.396Z,1.3
2023-03-16T04:23:21.219Z,1.3
2023-03-16T04:27:21.060Z,1.3
2023-03-16T04:31:21.359Z,1.3
2023-03-16T04:35:21.335Z,1.3
2023-03-16T04:39:21.160Z,1.3
2023-03-16T04:43:20.713Z,0.63
2023-03-16T04:47:20.663Z,0.63
2023-03-16T04:51:20.617Z,0.97
2023-03-16T04:55:20.859Z,0.97
2023-03-16T04:59:20.814Z,0.97
2023-03-16T05:03:20.715Z,0.97
2023-03-16T05:07:20.923Z,0.97
2023-03-16T05:11:21.105Z,0.97
2023-03-16T05:15:20.152Z,0.97
2023-03-16T05:19:20.350Z,0.97
2023-03-16T05:23:20.410Z,0.97
2023-03-16T05:27:20.399Z,0.97
2023-03-16T05:31:20.998Z,0.97
2023-03-16T05:35:22.490Z,0.97
2023-03-16T05:39:20.958Z,0.97
2023-03-16T05:43:21.414Z,0.97
2023-03-16T05:47:21.437Z,0.97
2023-03-16T05:51:21.062Z,0.97
2023-03-16T05:55:21.216Z,0.6
2023-03-16T05:59:22.715Z,0.6
2023-03-16T06:03:20.814Z,0.6
2023-03-16T06:07:20.862Z,0.6
2023-03-16T06:11:20.660Z,0.6
2023-03-16T06:15:20.913Z,0.6
2023-03-16T06:19:22.634Z,0.6
2023-03-16T06:23:20.992Z,0.6
2023-03-16T06:27:20.646Z,0.6
2023-03-16T06:31:20.984Z,0.6
2023-03-16T06:35:23.402Z,0.6
2023-03-16T06:39:21.057Z,0.6
2023-03-16T06:43:21.316Z,0.6
2023-03-16T06:47:21.455Z,0.6
2023-03-16T06:51:21.276Z,0.6
2023-03-16T06:55:20.252Z,0.6
2023-03-16T06:59:20.440Z,0.6
2023-03-16T07:03:23.100Z,0.6
2023-03-16T07:07:21.080Z,0.6
2023-03-16T07:11:20.306Z,0.6
2023-03-16T07:15:25.147Z,0.6
2023-03-16T07:19:20.714Z,0.6
2023-03-16T07:23:20.436Z,0.6
2023-03-16T07:27:23.357Z,0.6
2023-03-16T07:31:37.214Z,0.6
2023-03-16T07:35:22.011Z,0.6
2023-03-16T07:39:20.731Z,0.6
2023-03-16T07:43:20.863Z,0.6
2023-03-16T07:47:20.968Z,0.6
2023-03-16T07:51:20.857Z,0.6
2023-03-16T07:55:20.670Z,0.6
2023-03-16T07:59:21.071Z,0.6
2023-03-16T08:03:21.717Z,0.43
2023-03-16T08:07:20.747Z,0.75
2023-03-16T08:11:21.002Z,0.79
2023-03-16T08:15:20.961Z,1.02
2023-03-16T08:19:21.172Z,1.2
2023-03-16T08:23:21.247Z,1.22
2023-03-16T08:27:24.363Z,1.29
2023-03-16T08:31:20.699Z,1.46
2023-03-16T08:35:20.559Z,1.47
2023-03-16T08:39:39.585Z,1.5
2023-03-16T08:43:20.209Z,1.55
2023-03-16T08:47:21.183Z,1.53
2023-03-16T08:51:20.127Z,1.52
2023-03-16T08:55:36.539Z,1.56
2023-03-16T08:59:31.120Z,1.56
2023-03-16T09:03:20.500Z,1.66
2023-03-16T09:07:31.683Z,1.73
2023-03-16T09:11:20.485Z,1.7
2023-03-16T09:15:20.418Z,1.75
2023-03-16T09:19:20.719Z,1.79
2023-03-16T09:23:20.324Z,1.79
2023-03-16T09:27:20.924Z,1.97
2023-03-16T09:31:20.691Z,1.97
2023-03-16T09:35:21.452Z,1.98
2023-03-16T09:39:25.880Z,2.03
2023-03-16T09:43:20.409Z,2.21
2023-03-16T09:47:21.487Z,2.29
2023-03-16T09:51:34.298Z,2.52
2023-03-16T09:55:20.693Z,2.56
2023-03-16T09:59:20.782Z,2.54
2023-03-16T10:03:21.752Z,2.43
2023-03-16T10:07:20.574Z,2.48
2023-03-16T10:11:20.754Z,2.6
2023-03-16T10:15:21.203Z,2.43
2023-03-16T10:19:21.789Z,2.56
2023-03-16T10:23:20.675Z,2.59
2023-03-16T10:27:20.706Z,2.65
2023-03-16T10:31:21.107Z,2.63
2023-03-16T10:35:20.942Z,2.54
2023-03-16T10:39:21.788Z,2.41
2023-03-16T10:43:20.183Z,2.66
2023-03-16T10:47:24.107Z,2.69
2023-03-16T10:51:20.331Z,3.23
2023-03-16T10:55:20.999Z,3.05
2023-03-16T10:59:21.011Z,3.08
2023-03-16T11:03:21.011Z,3.39
2023-03-16T11:07:21.310Z,3.27
2023-03-16T11:11:31.249Z,3.35
2023-03-16T11:15:35.079Z,3.27
2023-03-16T11:19:20.413Z,3.31
2023-03-16T11:23:20.231Z,3.23
2023-03-16T11:27:22.695Z,3.23
2023-03-16T11:31:21.379Z,3.25
2023-03-16T11:35:20.411Z,3.19
2023-03-16T11:39:21.041Z,3.08
2023-03-16T11:43:21.744Z,3.31
2023-03-16T11:47:20.512Z,3.31
2023-03-16T11:51:20.382Z,3.08
2023-03-16T11:55:20.644Z,3.37
2023-03-16T11:59:20.592Z,3.55
2023-03-16T12:03:21.940Z,3.81
2023-03-16T12:07:31.521Z,4.41
2023-03-16T12:11:20.998Z,4.41
2023-03-16T12:15:20.809Z,4.55
2023-03-16T12:19:20.932Z,5.37
2023-03-16T12:23:20.747Z,5.24
2023-03-16T12:27:20.783Z,5.81
2023-03-16T12:31:21.378Z,6.13
2023-03-16T12:35:23.089Z,5.86
2023-03-16T12:39:21.211Z,5.91
2023-03-16T12:43:20.209Z,5.91
2023-03-16T12:47:21.919Z,6.56
2023-03-16T12:51:20.596Z,6.13
2023-03-16T12:55:20.489Z,6.13
2023-03-16T12:59:20.668Z,6.37
2023-03-16T13:03:20.595Z,6.02
2023-03-16T13:07:21.941Z,5.46
2023-03-16T13:11:20.555Z,5.37
2023-03-16T13:15:20.551Z,6.19
2023-03-16T13:19:20.469Z,6.19
2023-03-16T13:23:20.440Z,6.5
2023-03-16T13:27:20.322Z,6.25
2023-03-16T13:31:21.303Z,6.25
2023-03-16T13:35:20.486Z,6.97
2023-03-16T13:39:20.526Z,6.89
2023-03-16T13:43:20.606Z,6.89
2023-03-16T13:47:20.851Z,6.97
2023-03-16T13:51:21.134Z,7.84
2023-03-16T13:55:21.028Z,7.84
2023-03-16T13:59:21.160Z,8.4
2023-03-16T14:03:21.485Z,8.4
2023-03-16T14:07:20.912Z,8.4
2023-03-16T14:11:23.937Z,9.65
2023-03-16T14:15:20.585Z,9.52
2023-03-16T14:19:20.707Z,9.52
2023-03-16T14:23:22.600Z,9.04
2023-03-16T14:27:21.079Z,9.16
2023-03-16T14:31:20.816Z,9.16
2023-03-16T14:35:22.971Z,9.04
2023-03-16T14:39:20.399Z,8.4
2023-03-16T14:43:20.475Z,8.4
2023-03-16T14:47:21.520Z,8.5
2023-03-16T14:51:21.233Z,8.61
2023-03-16T14:55:21.136Z,8.61
2023-03-16T14:59:21.171Z,9.78
2023-03-16T15:03:21.959Z,9.52
2023-03-16T15:07:20.440Z,9.52
2023-03-16T15:11:20.536Z,10.96
2023-03-16T15:15:20.666Z,11.12
2023-03-16T15:19:20.871Z,11.12
2023-03-16T15:23:20.557Z,7.58
2023-03-16T15:27:21.855Z,4.87
2023-03-16T15:31:21.443Z,4.87
2023-03-16T15:35:21.289Z,6.76
2023-03-16T15:39:20.345Z,15.44
2023-03-16T15:43:20.972Z,15.44
2023-03-16T15:47:21.119Z,10.05
2023-03-16T15:51:20.474Z,7.11
2023-03-16T15:55:21.172Z,7.11
2023-03-16T15:59:22.604Z,6.02
2023-03-16T16:03:20.380Z,11.64
2023-03-16T16:07:20.503Z,11.64
2023-03-16T16:11:21.511Z,8.82
2023-03-16T16:15:20.775Z,4.32
2023-03-16T16:19:40.079Z,3.66
2023-03-16T16:23:20.867Z,3.62
2023-03-16T16:27:36.862Z,3.27
2023-03-16T16:31:21.119Z,3.27
2023-03-16T16:35:37.812Z,3.03
2023-03-16T16:39:20.287Z,2.89
2023-03-16T16:43:21.215Z,2.89
2023-03-16T16:47:21.347Z,2.8
2023-03-16T16:51:21.790Z,2.77
2023-03-16T16:55:20.804Z,2.77
2023-03-16T16:59:32.528Z,2.83
2023-03-16T17:03:23.863Z,2.75
2023-03-16T17:07:20.270Z,2.75
2023-03-16T17:11:24.062Z,2.66
2023-03-16T17:15:20.871Z,2.6
2023-03-16T17:19:20.647Z,2.6
2023-03-16T17:23:24.041Z,2.58
2023-03-16T17:27:20.785Z,2.52
2023-03-16T17:31:21.217Z,2.52
2023-03-16T17:35:24.030Z,2.5
2023-03-16T17:39:20.771Z,2.47
2023-03-16T17:43:20.910Z,2.47
2023-03-16T17:47:24.943Z,2.72
2023-03-16T17:51:20.867Z,2.62
2023-03-16T17:55:20.852Z,2.62
2023-03-16T17:59:24.182Z,2.5
2023-03-16T18:03:21.265Z,2.47
2023-03-16T18:07:21.365Z,2.47
2023-03-16T18:11:21.458Z,2.44
2023-03-16T18:15:22.537Z,2.44
2023-03-16T18:19:21.186Z,2.44
2023-03-16T18:23:21.317Z,2.5
2023-03-16T18:27:20.734Z,2.47
2023-03-16T18:31:20.510Z,2.47
2023-03-16T18:35:20.580Z,2.43
2023-03-16T18:39:20.356Z,2.42
2023-03-16T18:43:20.497Z,2.42
2023-03-16T18:47:20.918Z,2.46
2023-03-16T18:51:20.574Z,2.43
2023-03-16T18:55:20.635Z,2.43
2023-03-16T18:59:20.414Z,2.42
2023-03-16T19:03:20.784Z,2.42
2023-03-16T19:07:22.418Z,2.42
2023-03-16T19:11:20.731Z,2.42
2023-03-16T19:15:20.508Z,2.42
2023-03-16T19:19:20.921Z,2.42
2023-03-16T19:23:21.040Z,2.42
2023-03-16T19:27:20.891Z,2.42
2023-03-16T19:31:21.082Z,2.42
2023-03-16T19:35:20.826Z,2.42
2023-03-16T19:39:21.187Z,2.42
2023-03-16T19:43:20.777Z,2.42
2023-03-16T19:47:20.999Z,2.42
2023-03-16T19:51:20.610Z,2.42
2023-03-16T19:55:20.594Z,2.42
2023-03-16T19:59:20.710Z,2.42
2023-03-16T20:03:20.496Z,0.65
2023-03-16T20:07:23.783Z,0.65
2023-03-16T20:11:21.176Z,0.95
2023-03-16T20:15:21.086Z,1.18
2023-03-16T20:19:22.098Z,1.18
2023-03-16T20:23:20.624Z,1.18
2023-03-16T20:27:21.903Z,1.18
2023-03-16T20:31:20.754Z,1.18
2023-03-16T20:35:20.600Z,1.18
2023-03-16T20:39:20.537Z,1.18
2023-03-16T20:43:23.816Z,1.18
2023-03-16T20:47:20.848Z,1.18
2023-03-16T20:51:20.590Z,1.18
2023-03-16T20:55:20.710Z,1.18
2023-03-16T20:59:20.877Z,1.18
2023-03-16T21:03:21.001Z,1.18
2023-03-16T21:07:21.000Z,1.18
2023-03-16T21:11:21.139Z,1.18
2023-03-16T21:15:21.017Z,1.18
2023-03-16T21:19:20.204Z,1.18
2023-03-16T21:23:20.202Z,1.18
2023-03-16T21:27:20.611Z,1.18
2023-03-16T21:31:21.247Z,1.18
2023-03-16T21:35:20.981Z,1.18
2023-03-16T21:39:20.936Z,1.18
2023-03-16T21:43:23.191Z,1.18
2023-03-16T21:47:20.748Z,1.18
2023-03-16T21:51:20.622Z,1.18
2023-03-16T21:55:24.039Z,1.18
2023-03-16T21:59:23.352Z,1.18
2023-03-16T22:03:22.435Z,1.18
2023-03-16T22:07:21.400Z,1.18
2023-03-16T22:11:20.883Z,1.18
2023-03-16T22:15:21.040Z,1.18
2023-03-16T22:19:21.001Z,1.18
2023-03-16T22:23:20.335Z,1.18
2023-03-16T22:27:20.485Z,1.18
2023-03-16T22:31:21.009Z,1.18
2023-03-16T22:35:20.836Z,1.18
2023-03-16T22:39:20.866Z,1.18
2023-03-16T22:43:21.289Z,1.18
2023-03-16T22:47:20.507Z,1.18
2023-03-16T22:51:20.604Z,1.18
2023-03-16T22:55:20.765Z,1.18
2023-03-16T22:59:21.288Z,1.18
2023-03-16T23:03:20.906Z,1.18
2023-03-16T23:07:20.977Z,1.18
2023-03-16T23:11:20.985Z,1.18
2023-03-16T23:15:20.184Z,1.18
2023-03-16T23:19:35.241Z,1.18
2023-03-16T23:23:21.004Z,1.18
2023-03-16T23:27:21.128Z,1.18
2023-03-16T23:31:21.354Z,1.18
2023-03-16T23:35:21.177Z,1.18
2023-03-16T23:39:20.911Z,1.18
2023-03-16T23:43:20.354Z,1.18
2023-03-16T23:47:20.893Z,1.18
2023-03-16T23:51:20.878Z,1.18
2023-03-16T23:55:21.002Z,1.18
2023-03-16T23:59:21.076Z,1.18
